Bowdon, United Kingdom
Current Conditions -  °F | °C
As of 10:20 PM on Sunday 23 Nov 2014 (Local Time) from EGCC Reporting Station
Few Clouds Few Clouds  
Wind Chill: 30°   Ceiling: Unl
Heat Index: 36°   Visibility: 6mi
Dew Point: 36°   Wind: 7mph
Humidity: 100%   Direction: 180°S
Pressure: 30.15"   Gusts: NA
Location:  53.38°N, 2.37°W
Report Text: EGCC 232220Z 18006KT 130V200 9999 FEW031 02/02 Q1021 NOSIG
Loading
Personal Weather Stations






























Interactive Weather Map New forecast layout! Learn more

10-Day Weather Forecast

Advertisements
Track Severe Weather on mobile